Time;durP1;ratioP1;P1;durP2;ratioP2;P2;SDS_P1;SDS_P2;PMS_P1;PMS_P2;Temp;Humidity;BMP_temperature;BMP_pressure;BME280_temperature;BME280_humidity;BME280_pressure;Samples;Min_cycle;Max_cycle;Signal;HPM_P1;HPM_P2
2021/11/29 00:01:39;;;;;;;3.57;0.70;;;;;;;;;;5001785;28;20204;-73
2021/11/29 00:04:06;;;;;;;3.63;0.60;;;;;;;;;;5002074;28;21140;-72
2021/11/29 00:06:32;;;;;;;4.53;0.63;;;;;;;;;;5002381;28;20219;-73
2021/11/29 00:08:59;;;;;;;1.90;0.63;;;;;;;;;;5002219;28;20219;-74
2021/11/29 00:11:25;;;;;;;4.30;0.50;;;;;;;;;;5002273;28;20297;-73
2021/11/29 00:13:53;;;;;;;3.70;0.60;;;;;;;;;;5002885;28;20718;-72
2021/11/29 00:16:19;;;;;;;3.60;0.50;;;;;;;;;;5001362;28;20219;-73
2021/11/29 00:18:46;;;;;;;5.30;0.67;;;;;;;;;;5002066;28;21039;-73
2021/11/29 00:21:13;;;;;;;4.57;0.60;;;;;;;;;;5002281;28;20219;-73
2021/11/29 00:23:40;;;;;;;4.53;0.63;;;;;;;;;;5001335;28;20234;-73
2021/11/29 00:26:07;;;;;;;4.33;1.10;;;;;;;;;;5000675;28;20285;-73
2021/11/29 00:28:33;;;;;;;2.90;0.60;;;;;;;;;;5002391;28;20590;-73
2021/11/29 00:31:01;;;;;;;5.07;1.17;;;;;;;;;;5001093;28;20219;-73
2021/11/29 00:33:27;;;;;;;7.43;0.63;;;;;;;;;;5000451;28;20232;-73
2021/11/29 00:35:54;;;;;;;3.77;0.83;;;;;;;;;;5001726;28;20219;-73
2021/11/29 00:38:20;;;;;;;4.50;0.73;;;;;;;;;;5002028;28;20254;-73
2021/11/29 00:40:46;;;;;;;3.07;0.60;;;;;;;;;;5001955;28;20258;-73
2021/11/29 00:43:13;;;;;;;1.57;0.50;;;;;;;;;;5001451;28;20763;-74
2021/11/29 00:45:39;;;;;;;6.10;0.70;;;;;;;;;;5001567;28;20544;-73
2021/11/29 00:48:07;;;;;;;1.87;0.50;;;;;;;;;;5000371;28;20338;-72
2021/11/29 00:50:37;;;;;;;5.83;0.83;;;;;;;;;;5002490;28;20286;-72
2021/11/29 00:53:04;;;;;;;3.67;0.63;;;;;;;;;;5002299;28;20222;-74
2021/11/29 00:55:31;;;;;;;3.80;0.70;;;;;;;;;;5001574;28;20246;-72
2021/11/29 00:57:57;;;;;;;3.97;0.60;;;;;;;;;;5002591;28;20434;-73
2021/11/29 01:00:24;;;;;;;5.87;0.60;;;;;;;;;;5002980;28;20774;-73
2021/11/29 01:02:52;;;;;;;2.53;0.70;;;;;;;;;;5002048;28;20246;-73
2021/11/29 01:05:19;;;;;;;5.10;0.70;;;;;;;;;;5001884;28;20219;-73
2021/11/29 01:07:46;;;;;;;4.63;0.70;;;;;;;;;;5002688;28;20212;-73
2021/11/29 01:10:14;;;;;;;2.77;0.73;;;;;;;;;;5001283;28;20668;-73
2021/11/29 01:12:41;;;;;;;2.27;0.77;;;;;;;;;;5001829;28;20258;-73
2021/11/29 01:15:10;;;;;;;1.93;0.33;;;;;;;;;;5002581;28;20641;-73
2021/11/29 01:17:37;;;;;;;3.47;0.57;;;;;;;;;;5001268;28;20703;-73
2021/11/29 01:20:06;;;;;;;1.23;0.67;;;;;;;;;;5001016;28;20652;-72
2021/11/29 01:22:34;;;;;;;3.17;0.40;;;;;;;;;;5001851;28;20285;-73
2021/11/29 01:25:00;;;;;;;4.10;0.43;;;;;;;;;;5000245;28;20243;-72
2021/11/29 01:27:26;;;;;;;3.20;0.53;;;;;;;;;;4999989;28;20679;-72
2021/11/29 01:29:53;;;;;;;6.37;0.83;;;;;;;;;;5001283;28;20203;-72
2021/11/29 01:32:19;;;;;;;3.30;0.60;;;;;;;;;;5000323;28;20230;-72
2021/11/29 01:34:46;;;;;;;2.97;0.47;;;;;;;;;;5000710;28;20216;-72
2021/11/29 01:37:12;;;;;;;2.60;1.23;;;;;;;;;;5001140;28;20212;-72
2021/11/29 01:39:40;;;;;;;1.73;0.57;;;;;;;;;;5001027;28;20660;-72
2021/11/29 01:42:07;;;;;;;3.30;0.97;;;;;;;;;;4999018;28;20216;-72
2021/11/29 01:44:34;;;;;;;3.47;0.60;;;;;;;;;;5000701;28;20266;-72
2021/11/29 01:47:00;;;;;;;6.83;0.70;;;;;;;;;;5000624;28;20691;-72
2021/11/29 01:49:26;;;;;;;7.33;0.50;;;;;;;;;;4999460;28;20248;-72
2021/11/29 01:51:53;;;;;;;4.53;0.73;;;;;;;;;;5000497;28;20219;-71
2021/11/29 01:54:20;;;;;;;4.27;0.87;;;;;;;;;;5001031;28;20278;-71
2021/11/29 01:56:48;;;;;;;3.07;0.70;;;;;;;;;;5003808;28;20266;-71
2021/11/29 01:59:15;;;;;;;5.23;0.90;;;;;;;;;;5004586;28;20237;-71
2021/11/29 02:01:42;;;;;;;3.67;0.67;;;;;;;;;;5004728;28;20208;-71
2021/11/29 02:04:11;;;;;;;7.37;1.13;;;;;;;;;;5002956;28;20267;-71
2021/11/29 02:06:39;;;;;;;4.10;0.83;;;;;;;;;;5004664;28;20214;-71
2021/11/29 02:09:07;;;;;;;2.33;0.73;;;;;;;;;;5005796;28;20216;-72
2021/11/29 02:11:34;;;;;;;2.73;0.60;;;;;;;;;;5004302;28;20794;-72
2021/11/29 02:14:02;;;;;;;4.37;0.60;;;;;;;;;;5003447;28;20207;-72
2021/11/29 02:16:30;;;;;;;5.03;0.60;;;;;;;;;;5004489;28;20214;-73
2021/11/29 02:18:57;;;;;;;2.47;0.57;;;;;;;;;;5002829;28;20725;-72
2021/11/29 02:21:29;;;;;;;1.40;0.43;;;;;;;;;;5002866;28;20270;-72
2021/11/29 02:23:58;;;;;;;5.43;0.80;;;;;;;;;;5003628;28;20263;-72
2021/11/29 02:26:28;;;;;;;1.00;0.40;;;;;;;;;;5002798;28;20230;-72
2021/11/29 02:28:58;;;;;;;3.37;0.50;;;;;;;;;;5003259;28;20796;-73
2021/11/29 02:31:28;;;;;;;4.10;0.80;;;;;;;;;;5003384;28;20285;-72
2021/11/29 02:33:54;;;;;;;1.43;0.67;;;;;;;;;;5003392;28;20227;-72
2021/11/29 02:36:21;;;;;;;3.87;0.50;;;;;;;;;;5003143;28;20243;-72
2021/11/29 02:38:49;;;;;;;2.03;0.40;;;;;;;;;;5003666;28;20208;-72
2021/11/29 02:41:15;;;;;;;1.80;0.47;;;;;;;;;;5003914;28;20238;-72
2021/11/29 02:43:42;;;;;;;3.50;0.70;;;;;;;;;;5002345;28;20298;-72
2021/11/29 02:46:09;;;;;;;3.53;0.73;;;;;;;;;;5002922;28;20687;-73
2021/11/29 02:48:40;;;;;;;2.87;0.70;;;;;;;;;;5003427;28;20244;-72
2021/11/29 02:51:07;;;;;;;3.40;0.97;;;;;;;;;;5001960;28;20292;-72
2021/11/29 02:53:33;;;;;;;5.13;1.17;;;;;;;;;;5003516;28;20698;-73
2021/11/29 02:56:01;;;;;;;4.20;0.53;;;;;;;;;;5003125;28;20228;-72
2021/11/29 02:58:28;;;;;;;4.67;0.87;;;;;;;;;;5002686;28;20698;-72
2021/11/29 03:00:54;;;;;;;3.70;0.80;;;;;;;;;;5002443;28;20745;-73
2021/11/29 03:03:21;;;;;;;2.90;0.70;;;;;;;;;;5002663;28;20293;-73
2021/11/29 03:05:47;;;;;;;4.27;0.83;;;;;;;;;;5003717;28;20216;-73
2021/11/29 03:08:14;;;;;;;6.23;0.80;;;;;;;;;;5002105;28;20211;-73
2021/11/29 03:10:40;;;;;;;6.33;0.50;;;;;;;;;;5002949;28;20235;-72
2021/11/29 03:13:08;;;;;;;2.07;0.70;;;;;;;;;;5003952;28;20211;-73
2021/11/29 03:15:34;;;;;;;1.40;0.60;;;;;;;;;;5002958;28;20223;-73
2021/11/29 03:18:01;;;;;;;2.37;0.57;;;;;;;;;;5003512;28;20236;-72
2021/11/29 03:20:27;;;;;;;4.50;0.83;;;;;;;;;;5002381;28;20212;-74
2021/11/29 03:22:53;;;;;;;3.30;0.50;;;;;;;;;;5005101;28;20236;-73
2021/11/29 03:25:20;;;;;;;6.00;0.63;;;;;;;;;;5002275;28;20231;-73
2021/11/29 03:27:46;;;;;;;3.33;0.50;;;;;;;;;;5002675;28;20779;-74
2021/11/29 03:30:14;;;;;;;3.63;0.70;;;;;;;;;;5001714;28;20219;-73
2021/11/29 03:32:41;;;;;;;2.00;0.80;;;;;;;;;;5003678;28;20223;-73
2021/11/29 03:35:10;;;;;;;2.63;0.50;;;;;;;;;;5003485;28;20220;-73
2021/11/29 03:37:37;;;;;;;2.33;0.50;;;;;;;;;;5002374;28;20215;-73
2021/11/29 03:40:05;;;;;;;2.43;0.50;;;;;;;;;;5002218;28;20660;-73
2021/11/29 03:42:32;;;;;;;1.67;0.43;;;;;;;;;;5002004;28;20212;-73
2021/11/29 03:45:00;;;;;;;1.10;0.60;;;;;;;;;;5001507;28;20228;-73
2021/11/29 03:47:28;;;;;;;2.20;0.50;;;;;;;;;;5001165;28;20297;-73
2021/11/29 03:49:55;;;;;;;4.00;1.03;;;;;;;;;;5001819;28;20666;-75
2021/11/29 03:52:21;;;;;;;4.00;0.63;;;;;;;;;;5001255;28;20223;-74
2021/11/29 03:54:48;;;;;;;2.83;0.50;;;;;;;;;;5001550;28;20274;-74
2021/11/29 03:57:14;;;;;;;5.07;0.50;;;;;;;;;;5001026;28;20679;-73
2021/11/29 03:59:40;;;;;;;1.80;0.67;;;;;;;;;;5001414;28;21116;-74
2021/11/29 04:02:07;;;;;;;3.93;0.70;;;;;;;;;;5001274;28;20361;-74
2021/11/29 04:04:35;;;;;;;3.77;0.77;;;;;;;;;;5000175;28;20258;-74
2021/11/29 04:07:01;;;;;;;4.47;0.90;;;;;;;;;;5001088;28;20215;-74
2021/11/29 04:09:27;;;;;;;2.97;1.47;;;;;;;;;;4999839;28;20219;-74
2021/11/29 04:11:55;;;;;;;7.43;1.17;;;;;;;;;;5001147;28;20678;-74
2021/11/29 04:14:22;;;;;;;4.17;0.70;;;;;;;;;;5000607;28;21055;-74
2021/11/29 04:16:48;;;;;;;3.53;1.07;;;;;;;;;;5000723;28;20215;-74
2021/11/29 04:19:15;;;;;;;3.63;0.57;;;;;;;;;;5006180;28;20636;-74
2021/11/29 04:21:43;;;;;;;3.90;0.93;;;;;;;;;;5005442;28;20222;-73
2021/11/29 04:24:10;;;;;;;5.40;0.60;;;;;;;;;;5002058;28;20702;-74
2021/11/29 04:26:38;;;;;;;4.97;0.90;;;;;;;;;;5002547;28;20249;-74
2021/11/29 04:29:08;;;;;;;2.43;0.70;;;;;;;;;;5001392;28;20222;-73
2021/11/29 04:31:34;;;;;;;5.40;0.70;;;;;;;;;;5001491;28;20208;-74
2021/11/29 04:34:01;;;;;;;4.77;0.63;;;;;;;;;;5000897;28;20230;-73
2021/11/29 04:36:28;;;;;;;4.13;0.70;;;;;;;;;;5001095;28;20671;-74
2021/11/29 04:38:56;;;;;;;2.70;0.50;;;;;;;;;;5000805;28;20243;-75
2021/11/29 04:41:22;;;;;;;2.53;0.63;;;;;;;;;;5001219;28;20235;-74
2021/11/29 04:43:49;;;;;;;4.10;0.67;;;;;;;;;;5000895;28;20632;-74
2021/11/29 04:46:15;;;;;;;7.30;0.70;;;;;;;;;;4999762;28;20212;-74
2021/11/29 04:48:41;;;;;;;5.70;0.87;;;;;;;;;;4999551;28;20244;-74
2021/11/29 04:51:08;;;;;;;7.53;0.90;;;;;;;;;;5000916;28;20216;-74
2021/11/29 04:53:35;;;;;;;4.00;1.00;;;;;;;;;;4999893;28;20250;-74
2021/11/29 04:56:04;;;;;;;6.53;1.17;;;;;;;;;;4999890;28;20243;-74
2021/11/29 04:58:31;;;;;;;4.07;1.00;;;;;;;;;;5000258;28;20216;-74
2021/11/29 05:00:57;;;;;;;5.17;1.10;;;;;;;;;;5000044;28;20203;-74
2021/11/29 05:03:23;;;;;;;5.43;1.10;;;;;;;;;;4999962;28;20668;-74
2021/11/29 05:05:50;;;;;;;7.50;0.90;;;;;;;;;;5002197;28;20770;-74
2021/11/29 05:08:17;;;;;;;7.00;0.97;;;;;;;;;;5000148;28;20212;-73
2021/11/29 05:10:43;;;;;;;6.83;1.67;;;;;;;;;;5001243;28;21166;-73
2021/11/29 05:13:12;;;;;;;6.60;1.17;;;;;;;;;;5001555;28;20212;-74
2021/11/29 05:15:38;;;;;;;12.30;1.77;;;;;;;;;;5002213;28;20212;-74
2021/11/29 05:18:05;;;;;;;5.57;0.60;;;;;;;;;;5000339;28;20242;-73
2021/11/29 05:20:32;;;;;;;3.20;0.77;;;;;;;;;;5000909;28;20215;-74
2021/11/29 05:22:58;;;;;;;4.87;1.20;;;;;;;;;;5002322;28;20239;-74
2021/11/29 05:25:24;;;;;;;4.67;0.83;;;;;;;;;;5000376;28;20725;-74
2021/11/29 05:27:51;;;;;;;4.73;0.70;;;;;;;;;;5001563;28;20625;-74
2021/11/29 05:30:19;;;;;;;1.60;0.40;;;;;;;;;;5002773;28;20219;-76
2021/11/29 05:32:45;;;;;;;5.67;0.87;;;;;;;;;;5003672;28;20235;-76
2021/11/29 05:35:12;;;;;;;2.20;0.60;;;;;;;;;;5003781;28;20215;-77
2021/11/29 05:37:38;;;;;;;6.70;1.00;;;;;;;;;;5004270;28;20277;-76
2021/11/29 05:40:06;;;;;;;2.50;0.50;;;;;;;;;;5003272;28;20231;-77
2021/11/29 05:42:32;;;;;;;2.20;0.47;;;;;;;;;;5003183;28;20262;-77
2021/11/29 05:44:59;;;;;;;3.03;0.63;;;;;;;;;;5004788;28;20231;-77
2021/11/29 05:47:27;;;;;;;5.00;0.60;;;;;;;;;;5003680;28;20681;-77
2021/11/29 05:49:53;;;;;;;2.20;0.23;;;;;;;;;;5002960;28;20242;-77
2021/11/29 05:52:19;;;;;;;1.80;0.53;;;;;;;;;;5003872;28;20245;-76
2021/11/29 05:54:46;;;;;;;2.37;0.40;;;;;;;;;;5003814;28;20224;-77
2021/11/29 05:57:13;;;;;;;3.30;0.40;;;;;;;;;;5001550;28;20954;-76
2021/11/29 05:59:39;;;;;;;2.43;0.30;;;;;;;;;;5004056;28;20215;-77
2021/11/29 06:02:06;;;;;;;1.93;0.80;;;;;;;;;;5003307;28;20328;-77
2021/11/29 06:04:34;;;;;;;2.67;0.40;;;;;;;;;;5002908;28;20231;-77
2021/11/29 06:07:00;;;;;;;1.80;0.13;;;;;;;;;;5003295;28;20805;-76
2021/11/29 06:09:27;;;;;;;0.60;0.20;;;;;;;;;;5003273;28;20262;-77
2021/11/29 06:11:53;;;;;;;2.83;0.30;;;;;;;;;;5003509;28;20211;-77
2021/11/29 06:14:20;;;;;;;0.73;0.20;;;;;;;;;;5003051;28;20204;-77
2021/11/29 06:16:46;;;;;;;1.67;0.20;;;;;;;;;;5004044;28;20237;-77
2021/11/29 06:19:13;;;;;;;1.90;0.17;;;;;;;;;;5002418;28;20243;-77
2021/11/29 06:21:41;;;;;;;0.97;0.13;;;;;;;;;;5002463;28;20735;-77
2021/11/29 06:24:07;;;;;;;1.17;0.20;;;;;;;;;;5002960;28;20236;-77
2021/11/29 06:26:33;;;;;;;1.90;0.20;;;;;;;;;;5002923;28;20224;-77
2021/11/29 06:29:00;;;;;;;3.77;0.50;;;;;;;;;;5002497;28;20220;-77
2021/11/29 06:31:26;;;;;;;3.50;0.70;;;;;;;;;;5003133;28;20947;-77
2021/11/29 06:33:53;;;;;;;3.13;0.60;;;;;;;;;;5003350;28;20227;-77
2021/11/29 06:36:19;;;;;;;5.03;0.43;;;;;;;;;;5002146;28;20208;-77
2021/11/29 06:38:49;;;;;;;3.23;0.57;;;;;;;;;;5003149;28;20211;-77
2021/11/29 06:41:16;;;;;;;2.93;0.77;;;;;;;;;;5002405;28;20231;-77
2021/11/29 06:43:42;;;;;;;6.03;0.60;;;;;;;;;;5001652;28;20668;-77
2021/11/29 06:46:09;;;;;;;2.77;0.77;;;;;;;;;;5002223;28;20742;-77
2021/11/29 06:48:35;;;;;;;5.23;0.80;;;;;;;;;;5002119;28;20248;-77
2021/11/29 06:51:01;;;;;;;4.03;0.80;;;;;;;;;;5001991;28;20676;-77
2021/11/29 06:53:28;;;;;;;3.70;0.50;;;;;;;;;;5001714;28;20450;-77
2021/11/29 06:55:56;;;;;;;3.13;0.30;;;;;;;;;;5003014;28;20224;-77
2021/11/29 06:58:23;;;;;;;4.73;0.80;;;;;;;;;;5000904;28;20208;-77
2021/11/29 07:00:50;;;;;;;3.03;0.70;;;;;;;;;;4999863;28;20219;-76
2021/11/29 07:03:17;;;;;;;5.40;1.00;;;;;;;;;;5001287;28;20223;-77
2021/11/29 07:05:43;;;;;;;8.03;1.23;;;;;;;;;;5000351;28;20249;-77
2021/11/29 07:08:10;;;;;;;4.27;0.57;;;;;;;;;;5000015;28;20216;-77
2021/11/29 07:10:40;;;;;;;3.30;0.50;;;;;;;;;;5000193;28;20250;-77
2021/11/29 07:13:09;;;;;;;1.83;0.67;;;;;;;;;;4999732;28;20252;-77
2021/11/29 07:15:35;;;;;;;2.10;0.60;;;;;;;;;;5000090;28;20212;-77
2021/11/29 07:18:02;;;;;;;3.53;0.53;;;;;;;;;;4998901;28;20984;-77
2021/11/29 07:20:28;;;;;;;2.17;0.50;;;;;;;;;;4999411;28;20212;-77
2021/11/29 07:22:55;;;;;;;5.40;1.30;;;;;;;;;;5000007;28;20219;-77
2021/11/29 07:25:22;;;;;;;6.20;0.70;;;;;;;;;;4998668;28;20236;-77
2021/11/29 07:27:48;;;;;;;3.67;0.90;;;;;;;;;;5001093;28;20746;-77
2021/11/29 07:30:19;;;;;;;6.23;0.80;;;;;;;;;;4998931;28;20208;-78
2021/11/29 07:32:45;;;;;;;5.30;1.17;;;;;;;;;;5000733;28;20274;-78
2021/11/29 07:35:13;;;;;;;4.13;0.83;;;;;;;;;;4998896;28;20286;-77
2021/11/29 07:37:41;;;;;;;5.90;0.90;;;;;;;;;;4999869;28;20655;-77
2021/11/29 07:40:09;;;;;;;4.50;0.80;;;;;;;;;;4999829;28;20228;-77
2021/11/29 07:42:36;;;;;;;5.20;0.83;;;;;;;;;;4999234;28;20212;-77
2021/11/29 07:45:03;;;;;;;5.13;1.27;;;;;;;;;;5000656;28;20339;-77
2021/11/29 07:47:31;;;;;;;4.00;0.60;;;;;;;;;;4998727;28;20235;-77
2021/11/29 07:50:00;;;;;;;5.83;0.90;;;;;;;;;;4998476;28;20235;-78
2021/11/29 07:52:26;;;;;;;4.67;0.80;;;;;;;;;;4999024;28;20617;-77
2021/11/29 07:54:53;;;;;;;5.90;0.70;;;;;;;;;;4998721;28;20224;-77
2021/11/29 07:57:19;;;;;;;3.73;0.63;;;;;;;;;;4999561;28;20258;-77
2021/11/29 07:59:46;;;;;;;4.13;0.60;;;;;;;;;;4999345;28;20216;-77
2021/11/29 08:02:14;;;;;;;2.40;0.50;;;;;;;;;;4999008;28;20216;-77
2021/11/29 08:04:42;;;;;;;1.67;0.40;;;;;;;;;;4999651;28;20227;-77
2021/11/29 08:07:09;;;;;;;5.93;0.70;;;;;;;;;;4998519;28;20714;-77
2021/11/29 08:09:35;;;;;;;4.83;0.60;;;;;;;;;;4998582;28;20243;-77
2021/11/29 08:12:02;;;;;;;3.37;0.60;;;;;;;;;;4998042;28;21219;-77
2021/11/29 08:14:28;;;;;;;1.23;0.50;;;;;;;;;;4998856;28;20769;-77
2021/11/29 08:16:55;;;;;;;3.53;0.70;;;;;;;;;;4998816;28;20200;-77
2021/11/29 08:19:21;;;;;;;5.90;0.60;;;;;;;;;;4998402;28;20235;-77
2021/11/29 08:21:49;;;;;;;3.50;0.43;;;;;;;;;;4999555;28;20216;-77
2021/11/29 08:24:15;;;;;;;2.87;0.70;;;;;;;;;;4996563;28;20215;-77
2021/11/29 08:26:42;;;;;;;3.57;0.57;;;;;;;;;;4999730;28;20223;-77
2021/11/29 08:29:08;;;;;;;3.07;0.77;;;;;;;;;;4997033;28;20282;-77
2021/11/29 08:31:35;;;;;;;2.83;0.70;;;;;;;;;;4998487;28;20662;-77
2021/11/29 08:34:01;;;;;;;2.73;0.50;;;;;;;;;;4998116;28;20856;-77
2021/11/29 08:36:28;;;;;;;2.60;0.57;;;;;;;;;;4996883;28;20250;-77
2021/11/29 08:38:56;;;;;;;1.80;0.50;;;;;;;;;;4997729;28;20208;-77
2021/11/29 08:41:23;;;;;;;2.73;0.70;;;;;;;;;;4997362;28;20706;-77
2021/11/29 08:43:49;;;;;;;1.77;0.50;;;;;;;;;;4998237;28;20227;-77
2021/11/29 08:46:16;;;;;;;2.53;0.60;;;;;;;;;;4997973;28;20243;-77
2021/11/29 08:48:42;;;;;;;4.17;0.90;;;;;;;;;;4999201;28;20789;-77
2021/11/29 08:51:09;;;;;;;2.27;0.60;;;;;;;;;;4997410;28;20204;-77
2021/11/29 08:53:37;;;;;;;2.17;0.60;;;;;;;;;;4999499;28;20266;-77
2021/11/29 08:56:06;;;;;;;3.03;1.23;;;;;;;;;;4997871;28;21631;-77
2021/11/29 08:58:32;;;;;;;2.43;0.80;;;;;;;;;;4999265;28;20215;-77
2021/11/29 09:00:59;;;;;;;2.27;0.70;;;;;;;;;;4998562;28;20270;-78
2021/11/29 09:03:26;;;;;;;2.53;0.93;;;;;;;;;;4998642;28;20239;-77
2021/11/29 09:05:53;;;;;;;2.00;1.07;;;;;;;;;;4997839;28;20223;-77
2021/11/29 09:08:19;;;;;;;1.57;0.80;;;;;;;;;;4998358;28;20979;-77
2021/11/29 09:10:48;;;;;;;4.83;1.07;;;;;;;;;;4998196;28;20231;-77
2021/11/29 09:13:17;;;;;;;2.00;1.00;;;;;;;;;;4996853;28;20208;-77
2021/11/29 09:15:45;;;;;;;2.40;0.67;;;;;;;;;;4997395;28;20204;-77
2021/11/29 09:18:12;;;;;;;4.87;0.90;;;;;;;;;;4996697;28;20252;-77
2021/11/29 09:20:40;;;;;;;2.77;0.83;;;;;;;;;;4997582;28;20258;-77
2021/11/29 09:23:07;;;;;;;4.47;1.23;;;;;;;;;;4995950;28;20219;-77
2021/11/29 09:25:40;;;;;;;1.53;0.67;;;;;;;;;;4996970;28;20254;-77
2021/11/29 09:28:07;;;;;;;2.03;0.90;;;;;;;;;;4997201;28;20748;-78
2021/11/29 09:30:35;;;;;;;1.23;0.80;;;;;;;;;;4998285;28;21313;-77
2021/11/29 09:33:02;;;;;;;3.27;2.10;;;;;;;;;;4998303;28;20244;-78
2021/11/29 09:35:28;;;;;;;2.30;1.60;;;;;;;;;;4998267;28;20215;-77
2021/11/29 09:37:56;;;;;;;3.20;1.00;;;;;;;;;;4998251;28;20307;-77
2021/11/29 09:40:26;;;;;;;2.73;1.27;;;;;;;;;;4997473;28;20724;-78
2021/11/29 09:42:53;;;;;;;4.23;1.40;;;;;;;;;;4998130;28;20235;-77
2021/11/29 09:45:21;;;;;;;5.23;1.43;;;;;;;;;;4997475;28;20228;-77
2021/11/29 09:47:49;;;;;;;3.80;1.37;;;;;;;;;;4997819;28;20274;-77
2021/11/29 09:50:16;;;;;;;5.17;0.90;;;;;;;;;;4997381;28;20654;-77
2021/11/29 09:52:43;;;;;;;1.60;0.90;;;;;;;;;;4998454;28;20268;-77
2021/11/29 09:55:12;;;;;;;3.87;0.90;;;;;;;;;;4996945;28;20233;-77
2021/11/29 09:57:41;;;;;;;6.40;1.10;;;;;;;;;;4999255;28;20581;-77
2021/11/29 10:00:11;;;;;;;2.03;0.80;;;;;;;;;;4997221;28;20215;-77
2021/11/29 10:02:37;;;;;;;3.10;1.10;;;;;;;;;;4998937;28;20705;-76
2021/11/29 10:05:05;;;;;;;2.53;1.10;;;;;;;;;;4998047;28;20633;-76
2021/11/29 10:07:33;;;;;;;3.67;1.40;;;;;;;;;;4998629;28;20748;-78
2021/11/29 10:10:10;;;;;;;4.23;1.57;;;;;;;;;;4997975;28;20234;-77
2021/11/29 10:12:36;;;;;;;5.17;1.30;;;;;;;;;;4998370;28;20218;-77
2021/11/29 10:15:22;;;;;;;3.53;1.47;;;;;;;;;;4998568;28;20225;-77
2021/11/29 10:17:50;;;;;;;3.07;1.10;;;;;;;;;;5000653;28;20428;-77
2021/11/29 10:20:18;;;;;;;2.37;1.07;;;;;;;;;;5001355;28;20234;-77
2021/11/29 10:22:56;;;;;;;1.53;1.10;;;;;;;;;;5000926;28;20227;-76
2021/11/29 10:25:24;;;;;;;2.27;1.20;;;;;;;;;;5000517;28;20229;-77
2021/11/29 10:27:50;;;;;;;2.97;1.10;;;;;;;;;;5000420;28;20271;-76
2021/11/29 10:30:18;;;;;;;2.43;1.50;;;;;;;;;;5000383;28;20218;-76
2021/11/29 10:32:48;;;;;;;1.83;1.37;;;;;;;;;;5001115;28;20223;-76
2021/11/29 10:35:21;;;;;;;2.93;1.00;;;;;;;;;;5000068;28;20221;-76
2021/11/29 10:37:51;;;;;;;2.13;1.43;;;;;;;;;;5001373;28;20677;-76
2021/11/29 10:40:19;;;;;;;3.30;1.23;;;;;;;;;;4999745;28;20228;-76
2021/11/29 10:42:46;;;;;;;3.93;1.30;;;;;;;;;;5000212;28;20240;-76
2021/11/29 10:45:20;;;;;;;1.67;0.93;;;;;;;;;;4999777;28;21010;-75
2021/11/29 10:47:48;;;;;;;3.90;1.20;;;;;;;;;;5001093;28;20253;-76
2021/11/29 10:50:15;;;;;;;3.50;1.17;;;;;;;;;;4998936;28;20374;-76
2021/11/29 10:52:42;;;;;;;3.60;1.33;;;;;;;;;;5001438;28;20218;-75
2021/11/29 10:55:11;;;;;;;2.33;1.20;;;;;;;;;;4999556;28;20313;-76
2021/11/29 10:57:46;;;;;;;2.87;1.17;;;;;;;;;;5001110;28;20219;-75
2021/11/29 11:00:17;;;;;;;2.27;1.20;;;;;;;;;;4999776;28;20547;-75
2021/11/29 11:03:00;;;;;;;2.27;1.00;;;;;;;;;;5000317;28;22277;-75
2021/11/29 11:05:27;;;;;;;1.10;0.70;;;;;;;;;;5000204;28;20622;-75
2021/11/29 11:07:53;;;;;;;1.20;0.70;;;;;;;;;;5000066;28;20212;-75
2021/11/29 11:10:23;;;;;;;2.10;0.80;;;;;;;;;;4999791;28;20701;-75
2021/11/29 11:12:59;;;;;;;0.90;0.87;;;;;;;;;;4998856;28;20219;-75
2021/11/29 11:15:25;;;;;;;2.40;1.23;;;;;;;;;;5000665;28;20243;-75
2021/11/29 11:17:54;;;;;;;1.30;0.80;;;;;;;;;;4999391;28;20233;-75
2021/11/29 11:20:21;;;;;;;3.10;1.17;;;;;;;;;;4999810;28;20228;-76
2021/11/29 11:22:51;;;;;;;1.03;0.70;;;;;;;;;;4999863;28;20265;-75
2021/11/29 11:25:22;;;;;;;1.37;0.90;;;;;;;;;;4998410;28;20236;-75
2021/11/29 11:27:54;;;;;;;0.70;0.63;;;;;;;;;;4999446;28;20228;-76
2021/11/29 11:30:21;;;;;;;0.93;0.70;;;;;;;;;;4999089;28;20218;-75
2021/11/29 11:32:49;;;;;;;2.30;0.80;;;;;;;;;;4999943;28;21063;-76
2021/11/29 11:35:18;;;;;;;2.50;0.80;;;;;;;;;;4998444;28;20219;-75
2021/11/29 11:37:46;;;;;;;2.87;0.80;;;;;;;;;;4999900;28;20266;-75
2021/11/29 11:40:15;;;;;;;1.60;1.20;;;;;;;;;;4997515;28;20229;-75
2021/11/29 11:42:44;;;;;;;2.87;0.93;;;;;;;;;;4999369;28;20292;-75
2021/11/29 11:45:13;;;;;;;2.37;0.90;;;;;;;;;;4997453;28;20213;-75
2021/11/29 11:47:40;;;;;;;1.93;0.93;;;;;;;;;;4998366;28;20583;-75
2021/11/29 11:50:09;;;;;;;3.00;1.20;;;;;;;;;;4998201;28;20253;-75
2021/11/29 11:52:36;;;;;;;2.87;1.30;;;;;;;;;;4999483;28;20241;-75
2021/11/29 11:55:03;;;;;;;1.77;0.80;;;;;;;;;;4998438;28;20236;-75
2021/11/29 11:57:31;;;;;;;4.63;1.63;;;;;;;;;;4998226;28;20207;-75
2021/11/29 12:00:19;;;;;;;4.33;1.40;;;;;;;;;;4998521;28;20220;-75
2021/11/29 12:03:05;;;;;;;2.20;1.40;;;;;;;;;;4998226;28;20236;-76
2021/11/29 12:05:34;;;;;;;2.13;1.50;;;;;;;;;;4999569;28;20215;-76
2021/11/29 12:08:02;;;;;;;4.23;1.43;;;;;;;;;;4997764;28;20232;-76
2021/11/29 12:10:41;;;;;;;3.50;1.53;;;;;;;;;;4997989;28;20231;-76
2021/11/29 12:13:11;;;;;;;1.83;0.97;;;;;;;;;;4999104;28;20208;-76
2021/11/29 12:15:45;;;;;;;2.63;1.30;;;;;;;;;;5000349;28;20398;-76
2021/11/29 12:18:15;;;;;;;2.00;1.37;;;;;;;;;;4999577;28;20308;-76
2021/11/29 12:20:42;;;;;;;3.87;1.20;;;;;;;;;;4998410;28;21109;-76
2021/11/29 12:23:39;;;;;;;2.03;1.50;;;;;;;;;;4999955;28;20211;-76
2021/11/29 12:26:06;;;;;;;1.50;1.30;;;;;;;;;;4999088;28;20648;-76
2021/11/29 12:28:37;;;;;;;3.10;1.20;;;;;;;;;;4999475;28;20770;-76
2021/11/29 12:31:37;;;;;;;1.93;1.00;;;;;;;;;;4999966;28;20217;-76
2021/11/29 12:34:06;;;;;;;3.37;1.40;;;;;;;;;;5000006;28;20260;-76
2021/11/29 12:37:11;;;;;;;2.37;1.37;;;;;;;;;;4999767;28;20212;-75
2021/11/29 12:39:54;;;;;;;5.03;1.57;;;;;;;;;;4999068;28;20832;-75
2021/11/29 12:42:53;;;;;;;4.73;1.50;;;;;;;;;;4999659;28;20524;-75
2021/11/29 12:45:22;;;;;;;2.50;1.23;;;;;;;;;;4997785;28;20276;-75
2021/11/29 12:47:52;;;;;;;3.00;1.00;;;;;;;;;;4998647;28;20661;-76
2021/11/29 12:50:43;;;;;;;4.23;1.60;;;;;;;;;;4996802;28;20258;-76
2021/11/29 12:53:16;;;;;;;1.87;0.80;;;;;;;;;;4997625;28;20293;-76
2021/11/29 12:55:44;;;;;;;1.80;1.00;;;;;;;;;;4999083;28;20761;-76
2021/11/29 12:58:20;;;;;;;2.10;0.70;;;;;;;;;;4997220;28;20257;-76
2021/11/29 13:00:49;;;;;;;4.00;1.40;;;;;;;;;;4998718;28;20199;-76
2021/11/29 13:03:18;;;;;;;1.90;1.20;;;;;;;;;;4996755;28;20229;-75
2021/11/29 13:05:46;;;;;;;8.37;1.07;;;;;;;;;;4998281;28;20671;-76
2021/11/29 13:08:19;;;;;;;4.50;1.37;;;;;;;;;;4996315;28;20219;-75
2021/11/29 13:10:48;;;;;;;2.60;1.37;;;;;;;;;;4997673;28;20227;-75
2021/11/29 13:13:45;;;;;;;4.70;1.37;;;;;;;;;;4997767;28;20211;-76
2021/11/29 13:16:14;;;;;;;2.67;1.20;;;;;;;;;;4997043;28;20682;-76
2021/11/29 13:19:20;;;;;;;5.40;1.47;;;;;;;;;;4998809;28;20649;-76
2021/11/29 13:21:50;;;;;;;4.27;1.00;;;;;;;;;;4936991;29;20996;-76
2021/11/29 13:24:33;;;;;;;1.40;1.30;;;;;;;;;;4935629;28;20220;-76
2021/11/29 13:27:05;;;;;;;2.47;1.40;;;;;;;;;;4971288;28;20380;-76
2021/11/29 13:29:35;;;;;;;3.77;1.80;;;;;;;;;;4998464;28;20547;-76
2021/11/29 13:32:04;;;;;;;3.67;1.53;;;;;;;;;;4997693;28;20583;-76
2021/11/29 13:34:35;;;;;;;3.47;1.30;;;;;;;;;;4998470;28;20216;-76
2021/11/29 13:37:04;;;;;;;2.83;1.47;;;;;;;;;;4996614;28;20216;-75
2021/11/29 13:39:32;;;;;;;3.27;1.37;;;;;;;;;;4998170;28;20506;-75
2021/11/29 13:42:18;;;;;;;4.57;1.50;;;;;;;;;;4997595;28;20231;-76
2021/11/29 13:44:47;;;;;;;2.13;0.90;;;;;;;;;;4997755;28;20212;-76
2021/11/29 13:47:14;;;;;;;1.50;1.00;;;;;;;;;;4997509;28;20782;-75
2021/11/29 13:49:46;;;;;;;2.00;1.07;;;;;;;;;;4996775;28;20266;-75
2021/11/29 13:52:14;;;;;;;3.57;1.13;;;;;;;;;;5000200;28;20694;-75
2021/11/29 13:54:49;;;;;;;3.40;1.40;;;;;;;;;;5002003;28;20698;-75
2021/11/29 13:57:15;;;;;;;2.77;1.30;;;;;;;;;;5000625;28;20216;-75
2021/11/29 13:59:46;;;;;;;3.10;1.30;;;;;;;;;;5002204;28;20310;-75
2021/11/29 14:02:15;;;;;;;3.47;1.60;;;;;;;;;;4999826;28;20212;-75
2021/11/29 14:04:43;;;;;;;3.83;1.40;;;;;;;;;;5002039;28;20212;-75
2021/11/29 14:07:10;;;;;;;4.37;1.50;;;;;;;;;;5001388;28;20294;-76
2021/11/29 14:09:38;;;;;;;3.07;1.73;;;;;;;;;;5001274;28;20353;-78
2021/11/29 14:12:05;;;;;;;3.50;1.30;;;;;;;;;;5001213;28;20737;-75
2021/11/29 14:14:32;;;;;;;4.17;1.30;;;;;;;;;;5000689;28;20216;-75
2021/11/29 14:16:58;;;;;;;5.93;1.80;;;;;;;;;;5002611;28;20220;-75
2021/11/29 14:19:27;;;;;;;2.20;1.40;;;;;;;;;;5003601;28;20214;-76
2021/11/29 14:21:57;;;;;;;3.63;1.37;;;;;;;;;;5002499;28;20208;-75
2021/11/29 14:24:28;;;;;;;3.70;1.70;;;;;;;;;;5001763;28;20811;-76
2021/11/29 14:26:57;;;;;;;3.00;1.70;;;;;;;;;;5003166;28;20239;-76
2021/11/29 14:29:26;;;;;;;2.70;1.33;;;;;;;;;;5002489;28;20270;-76
2021/11/29 14:32:00;;;;;;;3.00;1.40;;;;;;;;;;5002087;28;20216;-75
2021/11/29 14:34:28;;;;;;;4.13;1.30;;;;;;;;;;5003668;28;20216;-75
2021/11/29 14:37:01;;;;;;;3.13;1.30;;;;;;;;;;5002414;28;20212;-76
2021/11/29 14:39:31;;;;;;;3.20;1.67;;;;;;;;;;5001741;28;20995;-76
2021/11/29 14:42:01;;;;;;;3.33;1.83;;;;;;;;;;5001697;28;20257;-76
2021/11/29 14:44:40;;;;;;;2.40;1.37;;;;;;;;;;5001891;28;20212;-76
2021/11/29 14:47:14;;;;;;;2.40;1.47;;;;;;;;;;5000304;28;20275;-76
2021/11/29 14:49:44;;;;;;;4.27;1.80;;;;;;;;;;5000936;28;20296;-76
2021/11/29 14:52:15;;;;;;;5.30;1.97;;;;;;;;;;5000014;28;20223;-76